sensor_id;sensor_type;location;lat;lon;timestamp;pressure;altitude;pressure_sealevel;temperature;humidity
42177;BME280;28126;51.060;19.460;2022-10-16T00:01:51;98698.94;;;25.81;37.42
42177;BME280;28126;51.060;19.460;2022-10-16T00:04:52;98707.11;;;25.81;37.43
42177;BME280;28126;51.060;19.460;2022-10-16T00:07:55;98707.63;;;25.81;37.40
42177;BME280;28126;51.060;19.460;2022-10-16T00:14:12;98705.43;;;25.80;37.36
42177;BME280;28126;51.060;19.460;2022-10-16T00:17:14;98715.72;;;25.78;37.48
42177;BME280;28126;51.060;19.460;2022-10-16T00:20:16;98718.13;;;25.77;37.53
42177;BME280;28126;51.060;19.460;2022-10-16T00:23:19;98713.73;;;25.76;37.53
42177;BME280;28126;51.060;19.460;2022-10-16T00:26:21;98710.69;;;25.75;37.53
42177;BME280;28126;51.060;19.460;2022-10-16T00:29:23;98707.13;;;25.75;37.60
42177;BME280;28126;51.060;19.460;2022-10-16T00:32:24;98698.13;;;25.74;37.63
42177;BME280;28126;51.060;19.460;2022-10-16T00:35:26;98694.59;;;25.74;37.60
42177;BME280;28126;51.060;19.460;2022-10-16T00:38:29;98699.48;;;25.74;37.62
42177;BME280;28126;51.060;19.460;2022-10-16T00:41:32;98694.80;;;25.72;37.70
42177;BME280;28126;51.060;19.460;2022-10-16T00:44:51;98701.09;;;25.73;37.69
42177;BME280;28126;51.060;19.460;2022-10-16T00:47:56;98704.33;;;25.72;37.71
42177;BME280;28126;51.060;19.460;2022-10-16T00:50:58;98701.81;;;25.71;37.69
42177;BME280;28126;51.060;19.460;2022-10-16T00:54:04;98706.53;;;25.73;37.66
42177;BME280;28126;51.060;19.460;2022-10-16T00:57:07;98712.81;;;25.73;37.65
42177;BME280;28126;51.060;19.460;2022-10-16T01:00:12;98709.25;;;25.73;37.63
42177;BME280;28126;51.060;19.460;2022-10-16T01:03:33;98721.27;;;25.74;37.64
42177;BME280;28126;51.060;19.460;2022-10-16T01:06:43;98714.45;;;25.74;37.67
42177;BME280;28126;51.060;19.460;2022-10-16T01:10:28;98718.46;;;25.72;37.68
42177;BME280;28126;51.060;19.460;2022-10-16T01:13:38;98717.10;;;25.72;37.69
42177;BME280;28126;51.060;19.460;2022-10-16T01:16:57;98722.95;;;25.69;37.71
42177;BME280;28126;51.060;19.460;2022-10-16T01:20:23;98716.91;;;25.67;37.75
42177;BME280;28126;51.060;19.460;2022-10-16T01:23:48;98725.68;;;25.69;37.71
42177;BME280;28126;51.060;19.460;2022-10-16T01:27:15;98725.08;;;25.67;37.76
42177;BME280;28126;51.060;19.460;2022-10-16T01:30:22;98720.69;;;25.66;37.82
42177;BME280;28126;51.060;19.460;2022-10-16T01:33:35;98722.77;;;25.64;37.87
42177;BME280;28126;51.060;19.460;2022-10-16T01:36:41;98728.53;;;25.65;37.97
42177;BME280;28126;51.060;19.460;2022-10-16T01:39:46;98722.25;;;25.64;37.93
42177;BME280;28126;51.060;19.460;2022-10-16T01:42:53;98720.05;;;25.64;37.93
42177;BME280;28126;51.060;19.460;2022-10-16T01:45:56;98715.77;;;25.65;37.89
42177;BME280;28126;51.060;19.460;2022-10-16T01:49:00;98715.13;;;25.63;37.97
42177;BME280;28126;51.060;19.460;2022-10-16T01:52:09;98712.41;;;25.63;38.00
42177;BME280;28126;51.060;19.460;2022-10-16T01:55:16;98716.80;;;25.64;38.04
42177;BME280;28126;51.060;19.460;2022-10-16T01:58:16;98710.45;;;25.61;38.08
42177;BME280;28126;51.060;19.460;2022-10-16T02:01:20;98716.49;;;25.63;38.09
42177;BME280;28126;51.060;19.460;2022-10-16T02:04:36;98720.37;;;25.65;38.10
42177;BME280;28126;51.060;19.460;2022-10-16T02:07:38;98714.61;;;25.64;38.07
42177;BME280;28126;51.060;19.460;2022-10-16T02:10:39;98720.05;;;25.64;38.05
42177;BME280;28126;51.060;19.460;2022-10-16T02:13:50;98728.84;;;25.66;38.02
42177;BME280;28126;51.060;19.460;2022-10-16T02:16:51;98725.29;;;25.65;38.01
42177;BME280;28126;51.060;19.460;2022-10-16T02:19:55;98726.65;;;25.65;38.04
42177;BME280;28126;51.060;19.460;2022-10-16T02:22:58;98726.13;;;25.66;38.04
42177;BME280;28126;51.060;19.460;2022-10-16T02:26:04;98729.69;;;25.66;38.08
42177;BME280;28126;51.060;19.460;2022-10-16T02:29:10;98733.14;;;25.64;38.04
42177;BME280;28126;51.060;19.460;2022-10-16T02:32:13;98734.50;;;25.64;38.07
42177;BME280;28126;51.060;19.460;2022-10-16T02:35:19;98739.22;;;25.66;38.01
42177;BME280;28126;51.060;19.460;2022-10-16T02:38:23;98729.69;;;25.66;38.05
42177;BME280;28126;51.060;19.460;2022-10-16T02:41:25;98732.41;;;25.66;38.07
42177;BME280;28126;51.060;19.460;2022-10-16T02:44:27;98740.26;;;25.65;38.10
42177;BME280;28126;51.060;19.460;2022-10-16T02:47:28;98738.05;;;25.65;37.98
42177;BME280;28126;51.060;19.460;2022-10-16T02:50:30;98746.22;;;25.65;38.07
42177;BME280;28126;51.060;19.460;2022-10-16T02:53:31;98754.39;;;25.65;38.05
42177;BME280;28126;51.060;19.460;2022-10-16T02:56:32;98760.67;;;25.65;38.10
42177;BME280;28126;51.060;19.460;2022-10-16T02:59:34;98752.50;;;25.65;38.05
42177;BME280;28126;51.060;19.460;2022-10-16T03:02:35;98754.39;;;25.65;38.06
42177;BME280;28126;51.060;19.460;2022-10-16T03:05:37;98754.91;;;25.64;38.10
42177;BME280;28126;51.060;19.460;2022-10-16T03:08:38;98754.91;;;25.64;38.15
42177;BME280;28126;51.060;19.460;2022-10-16T03:11:39;98760.35;;;25.64;38.14
42177;BME280;28126;51.060;19.460;2022-10-16T03:14:41;98763.08;;;25.64;38.13
42177;BME280;28126;51.060;19.460;2022-10-16T03:17:43;98758.99;;;25.64;38.16
42177;BME280;28126;51.060;19.460;2022-10-16T03:20:45;98762.23;;;25.64;38.16
42177;BME280;28126;51.060;19.460;2022-10-16T03:23:46;98772.92;;;25.65;38.21
42177;BME280;28126;51.060;19.460;2022-10-16T03:26:47;98773.44;;;25.65;38.18
42177;BME280;28126;51.060;19.460;2022-10-16T03:29:49;98774.48;;;25.64;38.18
42177;BME280;28126;51.060;19.460;2022-10-16T03:32:51;98781.61;;;25.65;38.28
42177;BME280;28126;51.060;19.460;2022-10-16T03:35:55;98778.88;;;25.65;38.18
42177;BME280;28126;51.060;19.460;2022-10-16T03:38:56;98786.52;;;25.65;38.07
42177;BME280;28126;51.060;19.460;2022-10-16T03:41:57;98786.84;;;25.66;38.09
42177;BME280;28126;51.060;19.460;2022-10-16T03:44:59;98790.41;;;25.67;38.13
42177;BME280;28126;51.060;19.460;2022-10-16T03:48:00;98790.92;;;25.66;38.10
42177;BME280;28126;51.060;19.460;2022-10-16T03:51:04;98787.16;;;25.67;38.08
42177;BME280;28126;51.060;19.460;2022-10-16T03:54:06;98781.92;;;25.66;38.14
42177;BME280;28126;51.060;19.460;2022-10-16T03:57:08;98792.28;;;25.66;38.19
42177;BME280;28126;51.060;19.460;2022-10-16T04:00:12;98795.53;;;25.66;38.21
42177;BME280;28126;51.060;19.460;2022-10-16T04:03:14;98791.13;;;25.65;38.18
42177;BME280;28126;51.060;19.460;2022-10-16T04:06:16;98799.61;;;25.66;38.15
42177;BME280;28126;51.060;19.460;2022-10-16T04:09:17;98799.09;;;25.66;38.17
42177;BME280;28126;51.060;19.460;2022-10-16T04:12:18;98800.66;;;25.65;38.24
42177;BME280;28126;51.060;19.460;2022-10-16T04:15:20;98803.38;;;25.65;38.28
42177;BME280;28126;51.060;19.460;2022-10-16T04:18:21;98801.49;;;25.65;38.23
42177;BME280;28126;51.060;19.460;2022-10-16T04:21:23;98798.45;;;25.64;38.28
42177;BME280;28126;51.060;19.460;2022-10-16T04:24:24;98800.34;;;25.64;38.28
42177;BME280;28126;51.060;19.460;2022-10-16T04:27:26;98799.50;;;25.63;38.45
42177;BME280;28126;51.060;19.460;2022-10-16T04:30:27;98796.78;;;25.63;38.54
42177;BME280;28126;51.060;19.460;2022-10-16T04:33:29;98796.78;;;25.63;38.33
42177;BME280;28126;51.060;19.460;2022-10-16T04:36:30;98799.81;;;25.64;38.31
42177;BME280;28126;51.060;19.460;2022-10-16T04:39:32;98795.21;;;25.65;38.35
42177;BME280;28126;51.060;19.460;2022-10-16T04:42:33;98794.05;;;25.63;38.39
42177;BME280;28126;51.060;19.460;2022-10-16T04:45:34;98801.70;;;25.64;38.27
42177;BME280;28126;51.060;19.460;2022-10-16T04:48:36;98801.70;;;25.64;38.38
42177;BME280;28126;51.060;19.460;2022-10-16T04:51:37;98796.58;;;25.65;38.47
42177;BME280;28126;51.060;19.460;2022-10-16T04:54:39;98795.21;;;25.65;38.47
42177;BME280;28126;51.060;19.460;2022-10-16T04:57:40;98791.13;;;25.65;38.43
42177;BME280;28126;51.060;19.460;2022-10-16T05:00:42;98800.13;;;25.65;38.41
42177;BME280;28126;51.060;19.460;2022-10-16T05:03:43;98802.86;;;25.65;38.41
42177;BME280;28126;51.060;19.460;2022-10-16T05:06:44;98797.94;;;25.65;38.41
42177;BME280;28126;51.060;19.460;2022-10-16T05:09:47;98795.73;;;25.64;38.43
42177;BME280;28126;51.060;19.460;2022-10-16T05:12:48;98797.94;;;25.65;38.43
42177;BME280;28126;51.060;19.460;2022-10-16T05:15:51;98797.09;;;25.64;38.42
42177;BME280;28126;51.060;19.460;2022-10-16T05:18:53;98796.58;;;25.65;38.43
42177;BME280;28126;51.060;19.460;2022-10-16T05:21:54;98796.58;;;25.65;38.42
42177;BME280;28126;51.060;19.460;2022-10-16T05:24:56;98794.89;;;25.64;38.42
42177;BME280;28126;51.060;19.460;2022-10-16T05:27:58;98799.30;;;25.65;38.43
42177;BME280;28126;51.060;19.460;2022-10-16T05:31:09;98799.30;;;25.65;38.43
42177;BME280;28126;51.060;19.460;2022-10-16T05:34:10;98794.05;;;25.63;38.41
42177;BME280;28126;51.060;19.460;2022-10-16T05:37:12;98802.22;;;25.63;38.47
42177;BME280;28126;51.060;19.460;2022-10-16T05:40:14;98808.50;;;25.64;38.38
42177;BME280;28126;51.060;19.460;2022-10-16T05:43:16;98818.88;;;25.64;38.44
42177;BME280;28126;51.060;19.460;2022-10-16T05:46:19;98827.03;;;25.64;38.47
42177;BME280;28126;51.060;19.460;2022-10-16T05:49:20;98830.59;;;25.65;38.46
42177;BME280;28126;51.060;19.460;2022-10-16T05:52:21;98834.67;;;25.65;38.47
42177;BME280;28126;51.060;19.460;2022-10-16T05:55:23;98840.95;;;25.65;38.55
42177;BME280;28126;51.060;19.460;2022-10-16T05:58:28;98849.45;;;25.66;38.48
42177;BME280;28126;51.060;19.460;2022-10-16T06:01:31;98853.73;;;25.65;38.45
42177;BME280;28126;51.060;19.460;2022-10-16T06:04:33;98856.97;;;25.64;38.54
42177;BME280;28126;51.060;19.460;2022-10-16T06:07:36;98856.97;;;25.64;38.61
42177;BME280;28126;51.060;19.460;2022-10-16T06:10:37;98859.70;;;25.64;38.68
42177;BME280;28126;51.060;19.460;2022-10-16T06:13:39;98867.86;;;25.64;38.80
42177;BME280;28126;51.060;19.460;2022-10-16T06:16:42;98869.54;;;25.65;39.00
42177;BME280;28126;51.060;19.460;2022-10-16T06:19:44;98869.86;;;25.66;39.13
42177;BME280;28126;51.060;19.460;2022-10-16T06:22:45;98867.66;;;25.66;39.22
42177;BME280;28126;51.060;19.460;2022-10-16T06:25:46;98872.58;;;25.66;39.32
42177;BME280;28126;51.060;19.460;2022-10-16T06:28:49;98880.74;;;25.66;39.39
42177;BME280;28126;51.060;19.460;2022-10-16T06:31:50;98883.03;;;25.69;39.31
42177;BME280;28126;51.060;19.460;2022-10-16T06:34:52;98876.14;;;25.67;39.14
42177;BME280;28126;51.060;19.460;2022-10-16T06:37:53;98882.83;;;25.64;39.13
42177;BME280;28126;51.060;19.460;2022-10-16T06:40:55;98880.11;;;25.64;38.98
